Hauptseite
METAR-TAF:

METAR-TAF

Flughäfen :

Malé International Airport

Malé, Malediven

Breite: 04-12N, Länge: 073-32E, Höhe: 2 m

Beobachtung

Neuester Wetterbericht von vor 57 Minuten, um 05:00 UTC
Wind 6 kt aus Südost
Temperatur 31°C
Luftfeuchtigkeit 75%
Luftdruck 1013 hPa
Sichtweite 10 km oder mehr
Leicht bewölkt in der Höhe von 1800 ft

METAR: VRMM 190500Z 13006KT 9999 FEW018 31/26 Q1013 NOSIG

Zeit: 10:57 (05:57 UTC)

Prognose

Neuester Wetterbericht von vor 6 Stunden und 57 Minuten, um 23:00 UTC
Gültige Prognose vom 19 um 00 UTC bis 20 um 06 UTC
Wind 6 kt aus Südost
Sichtweite 10 km oder mehr
Leicht bewölkt in der Höhe von 1800 ft
Zeitweise
vom 19 um 03 UTC bis 19 um 09 UTC
Leicht bewölkt in der Höhe von 1900 ft, Kumulonimbus.

TAF: VRMM 182300Z 1900/2006 14006KT 9999 FEW018 TEMPO 1903/1909 FEW019CB

Wetterbeobachtungen und Prognosen von mehr als 4000 Flughäfen (METAR und TAF Bericht).

Die verfügbaren Stationen werden durch gelbe und rote Markierungen auf der Karte dargestellt.

Führen Sie die Maus auf sie, um den Namen der Station zu sehen.

Darauf klicken, um die Beobachtung von Wetterbeobachtungen und Prognosen zu sehen.

Um die Karte zu ändern : klicken Sie auf den grünen Tasten mit einem schwarzen Kreuz Zum Vergrößern, auf den grünen Button mit einem Gedankenstrich zu verkleinern, oder auf die grünen Pfeile für benachbarte Karten.


METAR-TAF: